createdAt,value
2023-01-27T00:00:16.765Z,2.38
2023-01-27T00:03:19.501Z,2.38
2023-01-27T00:06:21.214Z,2.38
2023-01-27T00:09:22.769Z,2.37
2023-01-27T00:12:44.875Z,2.38
2023-01-27T00:15:46.750Z,2.38
2023-01-27T00:18:48.357Z,2.38
2023-01-27T00:22:08.219Z,2.38
2023-01-27T00:25:09.805Z,2.40
2023-01-27T00:28:23.273Z,2.39
2023-01-27T00:31:43.222Z,2.37
2023-01-27T00:34:44.852Z,2.39
2023-01-27T00:37:47.314Z,2.38
2023-01-27T00:41:08.804Z,2.39
2023-01-27T00:44:13.234Z,2.38
2023-01-27T00:47:14.953Z,2.38
2023-01-27T00:50:16.857Z,2.40
2023-01-27T00:53:18.444Z,2.41
2023-01-27T00:56:20.003Z,2.44
2023-01-27T00:59:22.692Z,2.45
2023-01-27T01:02:24.354Z,2.48
2023-01-27T01:05:25.934Z,2.49
2023-01-27T01:08:27.590Z,2.49
2023-01-27T01:11:29.139Z,2.51
2023-01-27T01:14:30.741Z,2.53
2023-01-27T01:17:32.519Z,2.53
2023-01-27T01:20:42.574Z,2.53
2023-01-27T01:23:45.718Z,2.54
2023-01-27T01:26:47.228Z,2.55
2023-01-27T01:29:48.825Z,2.56
2023-01-27T01:32:50.340Z,2.57
2023-01-27T01:35:51.885Z,2.57
2023-01-27T01:38:56.754Z,2.57
2023-01-27T01:41:58.663Z,2.57
2023-01-27T01:45:34.098Z,2.57
2023-01-27T01:48:58.675Z,2.56
2023-01-27T01:52:05.312Z,2.55
2023-01-27T01:55:07.086Z,2.55
2023-01-27T01:58:11.935Z,2.56
2023-01-27T02:01:17.074Z,2.53
2023-01-27T02:04:23.899Z,2.52
2023-01-27T02:07:43.157Z,2.53
2023-01-27T02:10:44.949Z,2.52
2023-01-27T02:13:47.082Z,2.50
2023-01-27T02:16:48.679Z,2.49
2023-01-27T02:20:09.247Z,2.47
2023-01-27T02:23:22.142Z,2.43
2023-01-27T02:26:28.350Z,2.42
2023-01-27T02:29:29.880Z,2.41
2023-01-27T02:32:31.532Z,2.40
2023-01-27T02:35:56.427Z,2.40
2023-01-27T02:38:59.634Z,2.39
2023-01-27T02:42:05.842Z,2.40
2023-01-27T02:45:07.814Z,2.38
2023-01-27T02:48:09.340Z,2.37
2023-01-27T02:51:11.142Z,2.36
2023-01-27T02:54:12.760Z,2.35
2023-01-27T02:57:14.366Z,2.34
2023-01-27T03:00:16.167Z,2.32
2023-01-27T03:03:17.780Z,2.30
2023-01-27T03:06:20.053Z,2.27
2023-01-27T03:09:21.612Z,2.26
2023-01-27T03:12:23.211Z,2.23
2023-01-27T03:15:43.433Z,2.21
2023-01-27T03:18:49.707Z,2.20
2023-01-27T03:21:52.826Z,2.20
2023-01-27T03:24:54.575Z,2.17
2023-01-27T03:27:56.856Z,2.16
2023-01-27T03:31:03.345Z,2.13
2023-01-27T03:34:05.080Z,2.11
2023-01-27T03:37:25.522Z,2.09
2023-01-27T03:40:46.539Z,2.05
2023-01-27T03:44:06.529Z,2.02
2023-01-27T03:47:08.105Z,2.01
2023-01-27T03:50:11.246Z,1.99
2023-01-27T03:53:12.802Z,1.96
2023-01-27T03:56:16.140Z,1.93
2023-01-27T03:59:17.697Z,1.92
2023-01-27T04:02:37.840Z,1.89
2023-01-27T04:05:58.186Z,1.87
2023-01-27T04:09:00.325Z,1.85
2023-01-27T04:12:06.649Z,1.84
2023-01-27T04:15:08.695Z,1.84
2023-01-27T04:18:10.247Z,1.84
2023-01-27T04:21:13.249Z,1.83
2023-01-27T04:24:25.132Z,1.81
2023-01-27T04:27:27.316Z,1.81
2023-01-27T04:30:28.883Z,1.80
2023-01-27T04:33:30.552Z,1.80
2023-01-27T04:36:32.158Z,1.79
2023-01-27T04:39:34.548Z,1.79
2023-01-27T04:42:36.113Z,1.80
2023-01-27T04:45:37.661Z,1.77
2023-01-27T04:48:39.229Z,1.78
2023-01-27T04:51:41.142Z,1.78
2023-01-27T04:54:42.809Z,1.77
2023-01-27T04:57:44.358Z,1.77
2023-01-27T05:00:45.888Z,1.74
2023-01-27T05:03:47.749Z,1.74
2023-01-27T05:06:49.317Z,1.74
2023-01-27T05:09:50.885Z,1.73
2023-01-27T05:12:52.425Z,1.70
2023-01-27T05:16:06.110Z,1.68
2023-01-27T05:19:09.130Z,1.65
2023-01-27T05:22:11.280Z,1.66
2023-01-27T05:25:13.091Z,1.64
2023-01-27T05:28:15.062Z,1.65
2023-01-27T05:31:22.760Z,1.64
2023-01-27T05:34:24.500Z,1.62
2023-01-27T05:37:26.897Z,1.63
2023-01-27T05:40:28.473Z,1.62
2023-01-27T05:43:31.546Z,1.75
2023-01-27T05:46:33.628Z,1.91
2023-01-27T05:49:35.761Z,1.93
2023-01-27T05:52:37.281Z,1.93
2023-01-27T05:55:38.825Z,1.91
2023-01-27T05:58:40.745Z,1.91
2023-01-27T06:01:42.422Z,1.89
2023-01-27T06:04:44.005Z,2.15
2023-01-27T06:07:45.538Z,2.27
2023-01-27T06:10:47.145Z,2.27
2023-01-27T06:13:49.076Z,2.27
2023-01-27T06:16:50.610Z,2.23
2023-01-27T06:19:52.160Z,2.20
2023-01-27T06:22:53.755Z,2.16
2023-01-27T06:25:56.218Z,2.12
2023-01-27T06:28:58.033Z,2.08
2023-01-27T06:31:59.589Z,2.03
2023-01-27T06:35:01.125Z,1.97
2023-01-27T06:38:04.580Z,1.91
2023-01-27T06:41:06.396Z,1.88
2023-01-27T06:44:07.953Z,1.87
2023-01-27T06:47:09.796Z,1.87
2023-01-27T06:50:12.399Z,1.88
2023-01-27T06:53:14.350Z,1.88
2023-01-27T06:56:17.477Z,1.89
2023-01-27T06:59:19.077Z,1.89
2023-01-27T07:02:20.622Z,1.88
2023-01-27T07:05:22.260Z,1.88
2023-01-27T07:08:23.891Z,1.88
2023-01-27T07:11:25.535Z,1.86
2023-01-27T07:14:27.826Z,1.83
2023-01-27T07:17:29.373Z,1.80
2023-01-27T07:20:32.340Z,1.79
2023-01-27T07:23:33.921Z,1.78
2023-01-27T07:26:35.482Z,1.78
2023-01-27T07:29:36.992Z,1.78
2023-01-27T07:32:38.554Z,1.77
2023-01-27T07:35:41.899Z,1.77
2023-01-27T07:38:43.428Z,1.77
2023-01-27T07:41:45.002Z,1.76
2023-01-27T07:44:46.565Z,1.75
2023-01-27T07:47:48.389Z,1.75
2023-01-27T07:50:49.969Z,1.74
2023-01-27T07:53:52.090Z,1.72
2023-01-27T07:56:53.614Z,1.73
2023-01-27T07:59:56.632Z,1.73
2023-01-27T08:03:00.045Z,1.72
2023-01-27T08:06:12.652Z,1.73
2023-01-27T08:09:14.183Z,1.70
2023-01-27T08:12:16.090Z,1.90
2023-01-27T08:15:19.154Z,2.01
2023-01-27T08:18:20.905Z,2.02
2023-01-27T08:21:22.525Z,2.00
2023-01-27T08:24:24.132Z,1.97
2023-01-27T08:27:25.685Z,1.95
2023-01-27T08:30:27.744Z,1.90
2023-01-27T08:33:29.316Z,1.87
2023-01-27T08:36:30.870Z,1.83
2023-01-27T08:39:32.948Z,1.77
2023-01-27T08:42:34.479Z,1.71
2023-01-27T08:45:36.723Z,1.67
2023-01-27T08:48:38.611Z,1.64
2023-01-27T08:51:40.995Z,1.61
2023-01-27T08:54:42.576Z,1.59
2023-01-27T08:57:44.339Z,1.56
2023-01-27T09:00:45.889Z,1.52
2023-01-27T09:03:48.378Z,1.51
2023-01-27T09:06:50.453Z,1.53
2023-01-27T09:09:58.278Z,1.56
2023-01-27T09:13:09.801Z,1.60
2023-01-27T09:16:12.600Z,1.60
2023-01-27T09:19:14.179Z,1.60
2023-01-27T09:22:15.713Z,1.60
2023-01-27T09:25:17.719Z,1.62
2023-01-27T09:28:19.304Z,1.65
2023-01-27T09:31:20.999Z,1.67
2023-01-27T09:34:22.631Z,2.03
2023-01-27T09:37:26.904Z,2.31
2023-01-27T09:41:27.164Z,2.32
2023-01-27T09:44:46.785Z,2.18
2023-01-27T09:48:15.646Z,2.04
2023-01-27T09:51:44.641Z,1.93
2023-01-27T09:54:46.171Z,1.87
2023-01-27T09:58:03.976Z,1.83
2023-01-27T10:01:30.128Z,1.77
2023-01-27T10:04:49.744Z,1.73
2023-01-27T10:08:06.287Z,1.76
2023-01-27T10:11:07.774Z,1.74
2023-01-27T10:14:34.258Z,1.71
2023-01-27T10:17:57.617Z,1.69
2023-01-27T10:21:20.150Z,1.68
2023-01-27T10:24:37.196Z,1.67
2023-01-27T10:27:47.057Z,1.66
2023-01-27T10:31:03.908Z,1.68
2023-01-27T10:34:31.261Z,1.70
2023-01-27T10:37:32.797Z,1.73
2023-01-27T10:40:37.403Z,1.75
2023-01-27T10:43:54.623Z,1.70
2023-01-27T10:47:11.341Z,1.67
2023-01-27T10:50:21.729Z,1.66
2023-01-27T10:53:34.584Z,1.66
2023-01-27T10:56:42.658Z,1.65
2023-01-27T11:00:18.016Z,1.65
2023-01-27T11:03:43.804Z,1.65
2023-01-27T11:06:47.236Z,1.66
2023-01-27T11:09:56.056Z,1.70
2023-01-27T11:12:59.409Z,1.69
2023-01-27T11:16:03.360Z,1.66
2023-01-27T11:19:22.618Z,1.89
2023-01-27T11:22:35.336Z,1.91
2023-01-27T11:26:00.197Z,1.89
2023-01-27T11:29:13.559Z,1.87
2023-01-27T11:32:49.255Z,1.85
2023-01-27T11:35:52.746Z,1.82
2023-01-27T11:38:56.426Z,1.82
2023-01-27T11:41:58.075Z,1.83
2023-01-27T11:45:01.709Z,1.85
2023-01-27T11:48:07.963Z,1.91
2023-01-27T11:51:17.496Z,2.00
2023-01-27T11:54:23.603Z,2.13
2023-01-27T11:57:27.813Z,2.19
2023-01-27T12:00:38.466Z,2.13
2023-01-27T12:03:56.065Z,2.25
2023-01-27T12:07:20.149Z,2.67
2023-01-27T12:10:36.454Z,2.68
2023-01-27T12:13:49.030Z,2.59
2023-01-27T12:16:52.721Z,2.60
2023-01-27T12:19:59.085Z,2.48
2023-01-27T12:23:18.834Z,2.35
2023-01-27T12:26:36.640Z,2.22
2023-01-27T12:29:42.132Z,2.15
2023-01-27T12:32:47.306Z,2.07
2023-01-27T12:35:50.308Z,2.01
2023-01-27T12:38:58.441Z,1.96
2023-01-27T12:41:59.995Z,1.95
2023-01-27T12:45:33.595Z,1.94
2023-01-27T12:48:50.104Z,1.95
2023-01-27T12:51:55.113Z,1.96
2023-01-27T12:54:56.995Z,1.98
2023-01-27T12:57:59.000Z,1.98
2023-01-27T13:01:23.158Z,1.96
2023-01-27T13:04:27.140Z,2.17
2023-01-27T13:07:42.373Z,2.36
2023-01-27T13:10:57.230Z,2.37
2023-01-27T13:13:58.966Z,2.31
2023-01-27T13:17:00.762Z,2.35
2023-01-27T13:20:14.451Z,2.43
2023-01-27T13:23:31.483Z,2.37
2023-01-27T13:26:37.663Z,2.30
2023-01-27T13:29:41.932Z,2.24
2023-01-27T13:32:47.602Z,2.22
2023-01-27T13:36:12.568Z,2.22
2023-01-27T13:39:27.097Z,2.16
2023-01-27T13:42:46.433Z,2.10
2023-01-27T13:45:55.616Z,2.08
2023-01-27T13:49:13.918Z,2.04
2023-01-27T13:52:15.509Z,2.00
2023-01-27T13:55:22.547Z,1.95
2023-01-27T13:58:24.060Z,1.92
2023-01-27T14:01:37.876Z,1.87
2023-01-27T14:05:26.287Z,1.82
2023-01-27T14:08:41.068Z,1.78
2023-01-27T14:11:48.160Z,1.74
2023-01-27T14:15:12.814Z,1.65
2023-01-27T14:18:22.345Z,1.57
2023-01-27T14:21:47.632Z,1.52
2023-01-27T14:25:20.295Z,1.51
2023-01-27T14:28:54.116Z,1.48
2023-01-27T14:32:37.334Z,1.48
2023-01-27T14:35:44.719Z,1.45
2023-01-27T14:39:00.368Z,1.42
2023-01-27T14:45:32.534Z,1.28
2023-01-27T14:48:59.459Z,1.21
2023-01-27T14:52:21.296Z,1.19
2023-01-27T14:55:42.858Z,1.18
2023-01-27T14:58:44.476Z,1.18
2023-01-27T15:01:56.031Z,1.21
2023-01-27T15:05:14.524Z,1.21
2023-01-27T15:08:30.423Z,1.20
2023-01-27T15:11:52.071Z,1.19
2023-01-27T15:15:23.823Z,1.22
2023-01-27T15:18:47.092Z,1.24
2023-01-27T15:22:06.938Z,1.29
2023-01-27T15:25:22.957Z,1.31
2023-01-27T15:28:29.458Z,1.30
2023-01-27T15:31:32.074Z,1.30
2023-01-27T15:34:33.846Z,1.26
2023-01-27T15:37:55.914Z,1.22
2023-01-27T15:41:00.421Z,1.23
2023-01-27T15:44:25.892Z,1.21
2023-01-27T15:47:32.701Z,1.20
2023-01-27T15:50:38.503Z,1.17
2023-01-27T15:53:45.220Z,1.12
2023-01-27T15:56:52.156Z,1.07
2023-01-27T15:59:59.511Z,1.05
2023-01-27T16:03:04.221Z,1.01
2023-01-27T16:06:09.823Z,1.01
2023-01-27T16:09:40.552Z,0.96
2023-01-27T16:12:48.452Z,0.93
2023-01-27T16:16:18.691Z,0.91
2023-01-27T16:19:30.222Z,0.88
2023-01-27T16:22:35.547Z,0.88
2023-01-27T16:25:45.426Z,0.90
2023-01-27T16:28:52.135Z,0.90
2023-01-27T16:32:00.252Z,0.94
2023-01-27T16:35:15.811Z,0.98
2023-01-27T16:38:20.433Z,1.03
2023-01-27T16:41:30.898Z,1.07
2023-01-27T16:44:41.821Z,1.09
2023-01-27T16:47:49.309Z,1.14
2023-01-27T16:50:54.462Z,1.19
2023-01-27T16:54:01.261Z,1.24
2023-01-27T16:57:04.964Z,1.28
2023-01-27T17:00:18.025Z,1.34
2023-01-27T17:03:46.059Z,1.40
2023-01-27T17:06:49.446Z,1.41
2023-01-27T17:09:53.788Z,1.46
2023-01-27T17:12:55.371Z,1.48
2023-01-27T17:15:58.740Z,1.48
2023-01-27T17:19:28.231Z,1.49
2023-01-27T17:22:41.429Z,1.43
2023-01-27T17:25:43.221Z,1.42
2023-01-27T17:28:46.797Z,1.41
2023-01-27T17:31:49.588Z,1.43
2023-01-27T17:34:54.691Z,1.46
2023-01-27T17:38:16.149Z,1.49
2023-01-27T17:41:32.855Z,1.50
2023-01-27T17:44:34.517Z,1.52
2023-01-27T17:47:36.063Z,1.59
2023-01-27T17:50:39.503Z,1.60
2023-01-27T17:53:42.820Z,1.52
2023-01-27T17:56:44.520Z,1.47
2023-01-27T17:59:56.268Z,1.42
2023-01-27T18:03:02.457Z,1.44
2023-01-27T18:06:06.370Z,1.38
2023-01-27T18:09:25.684Z,1.33
2023-01-27T18:12:37.111Z,1.30
2023-01-27T18:15:43.006Z,1.30
2023-01-27T18:18:45.585Z,1.36
2023-01-27T18:21:47.263Z,1.45
2023-01-27T18:24:52.122Z,1.52
2023-01-27T18:27:55.429Z,1.57
2023-01-27T18:30:57.088Z,1.61
2023-01-27T18:34:21.099Z,1.67
2023-01-27T18:37:36.340Z,1.65
2023-01-27T18:40:37.960Z,1.62
2023-01-27T18:43:39.518Z,1.56
2023-01-27T18:46:41.105Z,1.50
2023-01-27T18:49:43.264Z,1.44
2023-01-27T18:52:46.082Z,1.37
2023-01-27T18:55:48.003Z,1.30
2023-01-27T18:58:49.627Z,1.26
2023-01-27T19:01:51.310Z,1.24
2023-01-27T19:04:52.986Z,1.22
2023-01-27T19:07:54.825Z,1.19
2023-01-27T19:10:56.377Z,1.11
2023-01-27T19:13:58.057Z,1.03
2023-01-27T19:16:59.611Z,1.04
2023-01-27T19:20:01.190Z,1.08
2023-01-27T19:23:02.744Z,1.09
2023-01-27T19:26:10.438Z,1.07
2023-01-27T19:29:12.035Z,1.03
2023-01-27T19:32:15.406Z,0.99
2023-01-27T19:35:17.080Z,1.02
2023-01-27T19:38:18.794Z,0.99
2023-01-27T19:41:20.377Z,0.96
2023-01-27T19:44:21.926Z,0.95
2023-01-27T19:47:23.479Z,0.85
2023-01-27T19:50:32.237Z,0.76
2023-01-27T19:53:34.106Z,0.65
2023-01-27T19:56:36.247Z,0.55
2023-01-27T19:59:37.824Z,0.47
2023-01-27T20:02:39.574Z,0.39
2023-01-27T20:05:41.160Z,0.34
2023-01-27T20:08:42.820Z,0.28
2023-01-27T20:11:44.665Z,0.23
2023-01-27T20:14:46.379Z,0.19
2023-01-27T20:17:47.924Z,0.18
2023-01-27T20:20:49.573Z,0.21
2023-01-27T20:23:51.799Z,0.23
2023-01-27T20:26:53.624Z,0.25
2023-01-27T20:29:55.197Z,0.22
2023-01-27T20:32:56.736Z,0.20
2023-01-27T20:35:58.258Z,0.17
2023-01-27T20:38:59.801Z,0.17
2023-01-27T20:42:01.343Z,0.15
2023-01-27T20:45:03.069Z,0.13
2023-01-27T20:48:04.916Z,0.13
2023-01-27T20:51:11.962Z,0.11
2023-01-27T20:54:13.506Z,0.07
2023-01-27T20:57:15.359Z,0.09
2023-01-27T21:00:19.316Z,0.08
2023-01-27T21:03:22.073Z,0.09
2023-01-27T21:06:23.742Z,0.10
2023-01-27T21:09:25.292Z,0.11
2023-01-27T21:12:29.410Z,0.08
2023-01-27T21:15:31.048Z,0.06
2023-01-27T21:18:32.687Z,0.01
2023-01-27T21:21:34.266Z,-0.06
2023-01-27T21:24:35.832Z,-0.08
2023-01-27T21:27:37.456Z,-0.08
2023-01-27T21:30:39.029Z,-0.10
2023-01-27T21:33:40.638Z,-0.14
2023-01-27T21:36:42.197Z,-0.15
2023-01-27T21:39:44.039Z,-0.20
2023-01-27T21:43:03.843Z,-0.25
2023-01-27T21:46:05.604Z,-0.23
2023-01-27T21:49:07.145Z,-0.29
2023-01-27T21:52:08.693Z,-0.33
2023-01-27T21:55:14.102Z,-0.34
2023-01-27T21:58:16.014Z,-0.31
2023-01-27T22:01:17.695Z,-0.24
2023-01-27T22:04:19.334Z,-0.17
2023-01-27T22:07:20.966Z,-0.11
2023-01-27T22:10:27.404Z,-0.05
2023-01-27T22:13:29.059Z,-0.01
2023-01-27T22:16:30.623Z,0.00
2023-01-27T22:19:33.385Z,0.02
2023-01-27T22:22:34.957Z,0.04
2023-01-27T22:25:36.519Z,0.06
2023-01-27T22:28:38.074Z,0.08
2023-01-27T22:31:41.820Z,0.07
2023-01-27T22:34:44.451Z,0.07
2023-01-27T22:37:46.551Z,0.07
2023-01-27T22:40:55.657Z,0.07
2023-01-27T22:43:57.205Z,0.08
2023-01-27T22:46:58.783Z,0.09
2023-01-27T22:50:00.343Z,0.07
2023-01-27T22:53:01.954Z,0.01
2023-01-27T22:56:04.696Z,-0.02
2023-01-27T22:59:06.224Z,-0.01
2023-01-27T23:02:07.762Z,-0.00
2023-01-27T23:05:09.562Z,-0.01
2023-01-27T23:08:11.630Z,0.00
2023-01-27T23:11:13.236Z,0.03
2023-01-27T23:14:14.828Z,0.03
2023-01-27T23:17:16.544Z,0.21
2023-01-27T23:20:18.293Z,0.23
2023-01-27T23:23:20.578Z,0.22
2023-01-27T23:26:22.115Z,0.19
2023-01-27T23:29:25.330Z,0.13
2023-01-27T23:32:27.733Z,0.10
2023-01-27T23:35:29.280Z,0.03
2023-01-27T23:38:33.831Z,-0.03
2023-01-27T23:41:35.642Z,-0.14
2023-01-27T23:44:37.308Z,-0.20
2023-01-27T23:47:38.821Z,-0.25
2023-01-27T23:50:40.386Z,-0.27
2023-01-27T23:53:41.942Z,-0.31
2023-01-27T23:56:43.507Z,-0.35
2023-01-27T23:59:45.062Z,-0.38
